Time;durP1;ratioP1;P1;durP2;ratioP2;P2;SDS_P1;SDS_P2;PMS_P1;PMS_P2;Temp;Humidity;BMP_temperature;BMP_pressure;BME280_temperature;BME280_humidity;BME280_pressure;Samples;Min_cycle;Max_cycle;Signal;HPM_P1;HPM_P2
2023/08/09 00:01:34;;;;;;;11.57;7.45;;;;;;;14.89;100.00;101276.75;5027637;28;20513;-61
2023/08/09 00:04:00;;;;;;;14.07;7.93;;;;;;;14.87;100.00;101278.63;5028868;28;20059;-62
2023/08/09 00:06:25;;;;;;;12.93;7.93;;;;;;;14.81;100.00;101277.06;5024302;28;20112;-62
2023/08/09 00:08:50;;;;;;;13.13;9.68;;;;;;;14.81;100.00;101271.78;5028470;28;20110;-63
2023/08/09 00:11:16;;;;;;;16.33;10.13;;;;;;;14.80;100.00;101275.38;5028552;28;20030;-63
2023/08/09 00:13:41;;;;;;;15.80;10.38;;;;;;;14.78;100.00;101270.13;5027414;28;20041;-62
2023/08/09 00:16:06;;;;;;;16.08;10.05;;;;;;;14.73;100.00;101271.22;5027554;28;20025;-63
2023/08/09 00:18:32;;;;;;;18.88;11.48;;;;;;;14.71;100.00;101273.09;5016280;28;20029;-63
2023/08/09 00:21:00;;;;;;;15.77;10.30;;;;;;;14.67;100.00;101275.03;5027367;28;20049;-57
2023/08/09 00:23:26;;;;;;;18.77;9.88;;;;;;;14.62;100.00;101279.66;5027975;28;20021;-57
2023/08/09 00:25:51;;;;;;;17.40;10.50;;;;;;;14.59;100.00;101287.75;5028747;28;20381;-62
2023/08/09 00:28:16;;;;;;;15.85;10.77;;;;;;;14.57;100.00;101287.81;5027560;28;20025;-62
2023/08/09 00:30:42;;;;;;;19.20;11.43;;;;;;;14.56;100.00;101288.75;5026836;28;20592;-63
2023/08/09 00:33:07;;;;;;;18.17;11.40;;;;;;;14.56;100.00;101293.19;5027718;28;20037;-61
2023/08/09 00:35:33;;;;;;;24.63;13.48;;;;;;;14.57;100.00;101286.97;5027343;28;20018;-62
2023/08/09 00:37:59;;;;;;;20.38;11.95;;;;;;;14.55;100.00;101289.69;5024538;28;20030;-65
2023/08/09 00:40:24;;;;;;;23.15;12.85;;;;;;;14.56;100.00;101295.84;5017850;28;20048;-59
2023/08/09 00:42:50;;;;;;;29.70;14.82;;;;;;;14.53;100.00;101299.50;5027974;28;20026;-62
2023/08/09 00:45:15;;;;;;;23.80;13.75;;;;;;;14.50;100.00;101291.66;5025543;28;20033;-62
2023/08/09 00:47:40;;;;;;;26.88;14.27;;;;;;;14.49;100.00;101296.13;5026496;28;20010;-59
2023/08/09 00:50:06;;;;;;;26.40;12.55;;;;;;;14.50;100.00;101292.53;5027359;28;20115;-62
2023/08/09 00:52:32;;;;;;;30.70;14.40;;;;;;;14.52;100.00;101297.78;5026719;28;20030;-62
2023/08/09 00:54:59;;;;;;;24.13;13.73;;;;;;;14.51;100.00;101296.06;5027152;28;20428;-52
2023/08/09 00:57:24;;;;;;;24.02;13.68;;;;;;;14.54;100.00;101298.56;5025343;28;20031;-63
2023/08/09 00:59:50;;;;;;;29.98;13.63;;;;;;;14.52;100.00;101305.72;5026900;28;20115;-60
2023/08/09 01:02:15;;;;;;;25.95;14.30;;;;;;;14.55;100.00;101299.41;5027749;28;20099;-62
2023/08/09 01:04:41;;;;;;;26.35;14.75;;;;;;;14.56;100.00;101301.13;5026736;28;20526;-62
2023/08/09 01:07:14;;;;;;;26.20;14.50;;;;;;;14.51;100.00;101301.38;5025634;28;20029;-58
2023/08/09 01:09:46;;;;;;;24.30;13.15;;;;;;;14.51;100.00;101302.19;5027268;28;20033;-60
2023/08/09 01:12:15;;;;;;;26.95;14.57;;;;;;;14.52;100.00;101311.03;5009105;28;20500;-60
2023/08/09 01:14:47;;;;;;;33.05;16.50;;;;;;;14.53;100.00;101296.84;5025717;28;20057;-62
2023/08/09 01:17:14;;;;;;;26.55;14.82;;;;;;;14.53;100.00;101296.84;5025492;28;20047;-58
2023/08/09 01:19:49;;;;;;;31.02;16.02;;;;;;;14.48;100.00;101298.84;5024889;28;20525;-61
2023/08/09 01:22:17;;;;;;;28.90;15.60;;;;;;;14.50;100.00;101310.22;5025377;28;20037;-65
2023/08/09 01:24:45;;;;;;;29.35;15.82;;;;;;;14.49;100.00;101311.16;5026707;28;20635;-58
2023/08/09 01:27:11;;;;;;;28.35;15.68;;;;;;;14.48;100.00;101310.28;5026494;28;20029;-61
2023/08/09 01:29:38;;;;;;;32.92;15.90;;;;;;;14.48;100.00;101314.75;5027055;28;20104;-62
2023/08/09 01:32:04;;;;;;;31.63;16.52;;;;;;;14.44;100.00;101307.81;5026624;28;20033;-57
2023/08/09 01:34:30;;;;;;;30.27;16.92;;;;;;;14.45;100.00;101312.22;5026451;28;20100;-56
2023/08/09 01:36:58;;;;;;;36.97;18.10;;;;;;;14.45;100.00;101309.56;5026247;28;20029;-57
2023/08/09 01:39:26;;;;;;;38.78;16.67;;;;;;;14.42;100.00;101315.00;5024813;28;20029;-62
2023/08/09 01:41:52;;;;;;;35.22;17.67;;;;;;;14.38;100.00;101314.25;5027106;28;20128;-62
2023/08/09 01:44:17;;;;;;;38.45;19.15;;;;;;;14.39;100.00;101319.50;5025803;28;20649;-63
2023/08/09 01:46:43;;;;;;;34.05;17.52;;;;;;;14.39;100.00;101318.66;5025745;28;20390;-60
2023/08/09 01:49:13;;;;;;;35.78;18.73;;;;;;;14.39;100.00;101321.31;5026952;28;20030;-62
2023/08/09 01:51:39;;;;;;;46.00;20.00;;;;;;;14.35;100.00;101320.56;5024661;28;20112;-62
2023/08/09 01:54:06;;;;;;;43.55;18.75;;;;;;;14.32;100.00;101317.16;5026918;28;20104;-61
2023/08/09 01:56:31;;;;;;;37.03;18.75;;;;;;;14.33;100.00;101319.75;5026888;28;20072;-58
2023/08/09 01:58:57;;;;;;;39.88;18.73;;;;;;;14.33;100.00;101322.41;5025897;28;20029;-61
2023/08/09 02:01:23;;;;;;;40.47;19.88;;;;;;;14.30;100.00;101317.22;5025701;28;20033;-59
2023/08/09 02:03:49;;;;;;;36.78;18.55;;;;;;;14.26;100.00;101319.16;5025095;28;20032;-59
2023/08/09 02:06:14;;;;;;;29.98;16.85;;;;;;;14.21;100.00;101330.88;5025905;28;20038;-62
2023/08/09 02:08:43;;;;;;;39.83;19.45;;;;;;;14.17;100.00;101324.00;5026406;28;20029;-62
2023/08/09 02:11:08;;;;;;;43.33;19.55;;;;;;;14.13;100.00;101333.84;5024954;28;20457;-61
2023/08/09 02:13:34;;;;;;;44.88;21.55;;;;;;;14.14;100.00;101336.44;5027378;28;20075;-60
2023/08/09 02:16:00;;;;;;;45.63;20.65;;;;;;;14.18;100.00;101333.66;5027462;28;20462;-62
2023/08/09 02:18:25;;;;;;;43.90;21.10;;;;;;;14.18;100.00;101336.31;5027063;28;20540;-63
2023/08/09 02:20:51;;;;;;;45.38;21.83;;;;;;;14.24;100.00;101344.84;5027547;28;20030;-58
2023/08/09 02:23:17;;;;;;;46.65;22.02;;;;;;;14.28;100.00;101342.97;5030462;28;20025;-62
2023/08/09 02:25:43;;;;;;;46.88;21.70;;;;;;;14.31;100.00;101337.53;5028217;28;20025;-63
2023/08/09 02:28:08;;;;;;;49.40;21.73;;;;;;;14.33;100.00;101343.63;5030617;28;20040;-63
2023/08/09 02:30:34;;;;;;;56.92;22.27;;;;;;;14.33;100.00;101346.25;5027697;28;20103;-63
2023/08/09 02:32:59;;;;;;;45.00;21.67;;;;;;;14.32;100.00;101349.84;5029925;28;20027;-61
2023/08/09 02:35:24;;;;;;;46.67;21.48;;;;;;;14.34;100.00;101355.97;5028371;28;20014;-59
2023/08/09 02:37:50;;;;;;;45.53;21.15;;;;;;;14.30;100.00;101351.69;5029531;28;20163;-62
2023/08/09 02:40:15;;;;;;;45.45;20.63;;;;;;;14.29;100.00;101360.56;5030053;28;20032;-58
2023/08/09 02:42:40;;;;;;;46.35;20.80;;;;;;;14.30;100.00;101364.94;5029624;28;20516;-62
2023/08/09 02:45:06;;;;;;;48.78;22.25;;;;;;;14.26;100.00;101366.00;5028864;28;20049;-62
2023/08/09 02:47:31;;;;;;;39.13;18.88;;;;;;;14.22;100.00;101369.72;5028789;28;20029;-58
2023/08/09 02:49:57;;;;;;;40.50;18.80;;;;;;;14.21;100.00;101365.34;5028972;28;20057;-62
2023/08/09 02:52:22;;;;;;;45.75;20.60;;;;;;;14.23;100.00;101360.81;5028582;28;20029;-53
2023/08/09 02:54:48;;;;;;;52.38;23.27;;;;;;;14.21;100.00;101362.69;5029611;28;20871;-58
2023/08/09 02:57:14;;;;;;;50.72;23.23;;;;;;;14.17;100.00;101369.91;5029395;28;20106;-62
2023/08/09 02:59:39;;;;;;;48.78;21.80;;;;;;;14.14;100.00;101376.19;5028566;28;20366;-56
2023/08/09 03:02:05;;;;;;;46.45;20.85;;;;;;;14.13;100.00;101369.16;5029415;28;20028;-62
2023/08/09 03:04:31;;;;;;;56.55;23.85;;;;;;;14.20;100.00;101371.53;5028806;28;20033;-60
2023/08/09 03:06:57;;;;;;;48.90;22.13;;;;;;;14.25;100.00;101372.22;5028986;28;20032;-58
2023/08/09 03:09:22;;;;;;;60.92;25.63;;;;;;;14.30;100.00;101369.41;5029634;28;20017;-59
2023/08/09 03:11:47;;;;;;;54.10;24.67;;;;;;;14.31;100.00;101371.13;5030029;28;20048;-62
2023/08/09 03:14:13;;;;;;;53.55;23.80;;;;;;;14.33;100.00;101385.19;5029502;28;20543;-57
2023/08/09 03:16:39;;;;;;;51.53;23.05;;;;;;;14.31;100.00;101381.72;5029527;28;20038;-60
2023/08/09 03:19:06;;;;;;;50.13;23.27;;;;;;;14.29;100.00;101376.47;5029092;28;20071;-59
2023/08/09 03:21:32;;;;;;;50.08;22.63;;;;;;;14.26;100.00;101374.81;5028353;28;20036;-60
2023/08/09 03:23:57;;;;;;;59.17;24.85;;;;;;;14.27;100.00;101378.34;5029263;28;20017;-60
2023/08/09 03:26:23;;;;;;;60.70;25.45;;;;;;;14.25;100.00;101378.41;5029533;28;20033;-60
2023/08/09 03:28:48;;;;;;;51.30;23.35;;;;;;;14.23;100.00;101382.91;5029444;28;20100;-62
2023/08/09 03:31:14;;;;;;;64.22;27.00;;;;;;;14.21;100.00;101381.25;5029410;28;20022;-56
2023/08/09 03:33:39;;;;;;;56.60;23.25;;;;;;;14.21;100.00;101375.94;5027141;28;20504;-57
2023/08/09 03:36:05;;;;;;;57.35;24.20;;;;;;;14.18;100.00;101392.81;5027539;28;20025;-62
2023/08/09 03:38:31;;;;;;;52.60;22.58;;;;;;;14.12;100.00;101396.56;5027805;28;20401;-57
2023/08/09 03:40:56;;;;;;;56.63;22.65;;;;;;;14.12;100.00;101385.13;5027765;28;20028;-62
2023/08/09 03:43:21;;;;;;;62.47;25.50;;;;;;;14.15;100.00;101390.31;5028324;28;20034;-62
2023/08/09 03:45:47;;;;;;;52.58;22.33;;;;;;;14.13;100.00;101390.38;5027946;28;20029;-57
2023/08/09 03:48:12;;;;;;;49.80;21.08;;;;;;;14.15;100.00;101396.47;5027690;28;20056;-57
2023/08/09 03:50:38;;;;;;;50.60;22.23;;;;;;;14.20;100.00;101403.34;5026406;28;20025;-61
2023/08/09 03:53:03;;;;;;;52.90;22.88;;;;;;;14.25;100.00;101406.69;5028142;28;20061;-56
2023/08/09 03:55:29;;;;;;;49.53;21.65;;;;;;;14.25;100.00;101412.00;5028072;28;20030;-62
2023/08/09 03:57:54;;;;;;;44.95;21.48;;;;;;;14.28;100.00;101415.41;5029190;28;20055;-61
2023/08/09 04:00:22;;;;;;;55.53;22.08;;;;;;;14.29;100.00;101408.28;5027306;28;20478;-58
2023/08/09 04:02:48;;;;;;;46.95;19.10;;;;;;;14.31;100.00;101409.09;5012107;28;20022;-60
2023/08/09 04:05:15;;;;;;;41.63;19.15;;;;;;;14.34;100.00;101416.94;5007517;28;20406;-61
2023/08/09 04:07:42;;;;;;;42.13;19.30;;;;;;;14.33;100.00;101417.00;5008967;28;20030;-63
2023/08/09 04:10:08;;;;;;;42.85;19.63;;;;;;;14.32;100.00;101420.53;5008536;28;20101;-60
2023/08/09 04:12:33;;;;;;;42.70;17.17;;;;;;;14.35;100.00;101421.31;5009333;28;20148;-57
2023/08/09 04:14:58;;;;;;;34.05;16.98;;;;;;;14.38;100.00;101420.31;5012107;28;20480;-63
2023/08/09 04:17:24;;;;;;;35.97;16.95;;;;;;;14.40;100.00;101429.06;5022827;28;20485;-63
2023/08/09 04:19:49;;;;;;;37.78;17.10;;;;;;;14.44;100.00;101429.78;5022553;28;20083;-55
2023/08/09 04:22:14;;;;;;;43.28;17.33;;;;;;;14.47;100.00;101435.84;5026866;28;20079;-57
2023/08/09 04:24:40;;;;;;;37.53;17.88;;;;;;;14.51;100.00;101437.44;5026982;28;20017;-63
2023/08/09 04:27:06;;;;;;;37.70;18.27;;;;;;;14.57;100.00;101441.63;5011838;28;20061;-61
2023/08/09 04:29:31;;;;;;;41.13;17.90;;;;;;;14.64;100.00;101440.47;5007167;28;20533;-60
2023/08/09 04:31:57;;;;;;;38.58;17.92;;;;;;;14.65;100.00;101444.84;5009479;28;20083;-61
2023/08/09 04:34:23;;;;;;;37.35;16.30;;;;;;;14.74;100.00;101440.06;5026488;28;20022;-56
2023/08/09 04:36:52;;;;;;;37.30;16.70;;;;;;;14.76;100.00;101438.22;5026753;28;20025;-60
2023/08/09 04:39:18;;;;;;;34.90;17.40;;;;;;;14.74;100.00;101438.28;5026607;28;20206;-61
2023/08/09 04:41:43;;;;;;;33.58;16.17;;;;;;;14.80;100.00;101437.19;5026485;28;20025;-56
2023/08/09 04:44:08;;;;;;;34.08;16.05;;;;;;;14.84;100.00;101433.47;5026351;28;20083;-62
2023/08/09 04:46:34;;;;;;;31.83;14.70;;;;;;;14.91;100.00;101450.84;5026269;28;20043;-63
2023/08/09 04:48:59;;;;;;;39.35;17.83;;;;;;;14.96;100.00;101455.97;5026406;28;20036;-61
2023/08/09 04:51:25;;;;;;;30.23;15.43;;;;;;;15.03;100.00;101451.28;5026271;28;20506;-59
2023/08/09 04:53:50;;;;;;;31.65;15.80;;;;;;;15.09;100.00;101444.81;5026580;28;20022;-60
2023/08/09 04:56:16;;;;;;;32.17;16.85;;;;;;;15.13;100.00;101452.59;5023371;28;20082;-61
2023/08/09 04:58:41;;;;;;;30.23;15.23;;;;;;;15.26;100.00;101450.25;5005554;28;20021;-61
2023/08/09 05:01:06;;;;;;;29.67;14.95;;;;;;;15.35;100.00;101448.97;5008239;28;20057;-58
2023/08/09 05:03:32;;;;;;;27.27;14.73;;;;;;;15.40;100.00;101449.66;5026362;28;20079;-60
2023/08/09 05:05:57;;;;;;;26.33;13.52;;;;;;;15.46;100.00;101452.94;5026800;28;20405;-61
2023/08/09 05:08:23;;;;;;;22.90;13.40;;;;;;;15.50;100.00;101452.75;5016796;28;20076;-52
2023/08/09 05:10:48;;;;;;;25.35;13.43;;;;;;;15.59;100.00;101456.78;5018229;28;20509;-62
2023/08/09 05:13:13;;;;;;;28.35;14.52;;;;;;;15.60;100.00;101455.88;5022651;28;20052;-63
2023/08/09 05:15:39;;;;;;;22.00;13.27;;;;;;;15.65;100.00;101459.16;5027020;28;20480;-61
2023/08/09 05:18:04;;;;;;;23.15;13.45;;;;;;;15.70;100.00;101458.09;5027278;28;20072;-62
2023/08/09 05:20:30;;;;;;;19.50;12.38;;;;;;;15.72;100.00;101456.22;5026636;28;20033;-63
2023/08/09 05:22:55;;;;;;;20.33;12.95;;;;;;;15.71;100.00;101462.47;5027330;28;20036;-58
2023/08/09 05:25:20;;;;;;;23.05;12.20;;;;;;;15.75;100.00;101462.25;5026859;28;20033;-61
2023/08/09 05:27:48;;;;;;;20.58;12.73;;;;;;;15.72;100.00;101462.41;5025874;28;20072;-57
2023/08/09 05:30:19;;;;;;;19.60;11.65;;;;;;;15.80;100.00;101467.34;5027319;28;20029;-61
2023/08/09 05:32:44;;;;;;;22.45;12.82;;;;;;;15.80;100.00;101470.00;5027395;28;20600;-59
2023/08/09 05:35:10;;;;;;;19.35;11.35;;;;;;;15.76;100.00;101471.97;5026620;28;20052;-62
2023/08/09 05:37:36;;;;;;;17.58;11.68;;;;;;;15.72;100.00;101466.84;5026619;28;20052;-61
2023/08/09 05:40:02;;;;;;;16.50;10.27;;;;;;;15.66;100.00;101468.84;5017491;28;20053;-61
2023/08/09 05:42:28;;;;;;;21.55;11.93;;;;;;;15.65;100.00;101476.88;5014385;28;20061;-62
2023/08/09 05:44:54;;;;;;;21.15;11.48;;;;;;;15.63;100.00;101476.94;5007118;28;20520;-60
2023/08/09 05:47:19;;;;;;;19.65;11.68;;;;;;;15.66;100.00;101482.13;5007040;28;20691;-60
2023/08/09 05:49:44;;;;;;;18.45;11.55;;;;;;;15.64;100.00;101488.44;5006968;28;20026;-61
2023/08/09 05:52:09;;;;;;;17.75;11.20;;;;;;;15.63;100.00;101495.53;5007790;28;20026;-56
2023/08/09 05:54:35;;;;;;;20.10;12.10;;;;;;;15.65;100.00;101500.78;5008203;28;20030;-61
2023/08/09 05:57:01;;;;;;;20.92;12.02;;;;;;;15.69;100.00;101498.88;5027201;28;20458;-61
2023/08/09 05:59:26;;;;;;;17.23;11.30;;;;;;;15.72;100.00;101512.03;5030633;28;20056;-62
2023/08/09 06:01:52;;;;;;;25.27;12.98;;;;;;;15.81;100.00;101508.97;5031198;28;20040;-60
2023/08/09 06:04:17;;;;;;;23.08;12.88;;;;;;;15.96;100.00;101510.09;5031511;28;20026;-60
2023/08/09 06:06:42;;;;;;;22.42;12.70;;;;;;;16.06;100.00;101514.94;5029290;28;20486;-61
2023/08/09 06:09:09;;;;;;;20.77;13.55;;;;;;;16.23;100.00;101516.84;5031366;28;20037;-61
2023/08/09 06:11:35;;;;;;;26.23;12.93;;;;;;;16.37;100.00;101510.84;5030706;28;20025;-60
2023/08/09 06:14:00;;;;;;;25.30;13.88;;;;;;;16.47;100.00;101506.84;5029344;28;20106;-61
2023/08/09 06:16:26;;;;;;;26.67;14.45;;;;;;;16.52;100.00;101503.91;5010912;28;20030;-62
2023/08/09 06:18:51;;;;;;;16.67;10.95;;;;;;;16.58;100.00;101514.28;5010837;28;20057;-62
2023/08/09 06:21:17;;;;;;;19.38;11.73;;;;;;;16.70;100.00;101514.63;5028439;28;20063;-62
2023/08/09 06:23:42;;;;;;;20.02;12.50;;;;;;;16.72;100.00;101512.72;5030188;28;20116;-61
2023/08/09 06:26:07;;;;;;;21.15;11.55;;;;;;;16.76;100.00;101520.50;5030470;28;20025;-63
2023/08/09 06:28:33;;;;;;;18.52;11.45;;;;;;;16.86;100.00;101523.53;5030521;28;20110;-56
2023/08/09 06:30:58;;;;;;;17.48;10.77;;;;;;;16.99;100.00;101522.94;5030266;28;20048;-59
2023/08/09 06:33:23;;;;;;;20.80;11.45;;;;;;;17.02;100.00;101525.47;5030169;28;20033;-62
2023/08/09 06:35:49;;;;;;;22.98;11.23;;;;;;;17.13;100.00;101525.78;5030726;28;20018;-63
2023/08/09 06:38:14;;;;;;;20.38;10.10;;;;;;;17.23;100.00;101520.00;5029961;28;20025;-62
2023/08/09 06:40:39;;;;;;;15.43;10.23;;;;;;;17.35;100.00;101527.38;5016856;28;20030;-62
2023/08/09 06:43:05;;;;;;;18.30;9.00;;;;;;;17.35;100.00;101530.03;5011043;28;20022;-61
2023/08/09 06:45:30;;;;;;;11.52;8.15;;;;;;;17.48;100.00;101532.91;5028527;28;20030;-62
2023/08/09 06:47:56;;;;;;;14.95;8.45;;;;;;;17.60;100.00;101535.88;5029708;28;20056;-63
2023/08/09 06:50:23;;;;;;;11.85;7.45;;;;;;;17.72;100.00;101531.69;5029159;28;20108;-59
2023/08/09 06:52:49;;;;;;;15.13;7.30;;;;;;;17.81;100.00;101539.19;5029564;28;20041;-61
2023/08/09 06:55:14;;;;;;;11.18;6.72;;;;;;;17.84;100.00;101536.38;5031146;28;20053;-61
2023/08/09 06:57:39;;;;;;;9.90;5.68;;;;;;;17.90;100.00;101536.03;5030462;28;20029;-61
2023/08/09 07:00:05;;;;;;;8.18;5.07;;;;;;;18.02;100.00;101538.97;5030367;28;20427;-58
2023/08/09 07:02:33;;;;;;;6.15;4.60;;;;;;;18.09;100.00;101540.38;5030078;28;20469;-60
2023/08/09 07:05:01;;;;;;;9.48;5.00;;;;;;;18.11;100.00;101542.97;5029113;28;20069;-62
2023/08/09 07:07:26;;;;;;;11.38;4.80;;;;;;;18.21;100.00;101538.84;5029143;28;20367;-60
2023/08/09 07:09:52;;;;;;;11.15;5.60;;;;;;;18.18;100.00;101539.91;5018676;28;20025;-61
2023/08/09 07:12:19;;;;;;;6.85;5.07;;;;;;;18.28;100.00;101544.72;5018891;28;20033;-61
2023/08/09 07:14:45;;;;;;;6.85;4.47;;;;;;;18.38;100.00;101540.59;5021420;28;20072;-59
2023/08/09 07:17:11;;;;;;;6.78;4.60;;;;;;;18.48;100.00;101540.09;5017537;28;20026;-62
2023/08/09 07:19:36;;;;;;;5.43;4.07;;;;;;;18.62;100.00;101539.28;5021597;28;20393;-60
2023/08/09 07:22:02;;;;;;;6.22;3.63;;;;;;;18.73;100.00;101541.34;5018038;28;20088;-59
2023/08/09 07:24:27;;;;;;;3.85;3.50;;;;;;;18.75;100.00;101550.16;5020857;28;20026;-60
2023/08/09 07:26:52;;;;;;;5.13;3.78;;;;;;;18.91;100.00;101558.13;5023491;28;20501;-58
2023/08/09 07:29:18;;;;;;;6.43;3.55;;;;;;;18.89;100.00;101550.19;5028614;28;20036;-61
2023/08/09 07:31:43;;;;;;;5.65;3.55;;;;;;;19.00;100.00;101551.38;5028483;28;20039;-61
2023/08/09 07:34:08;;;;;;;10.55;3.60;;;;;;;19.06;100.00;101557.22;5029138;28;20029;-60
2023/08/09 07:36:34;;;;;;;8.43;3.70;;;;;;;19.17;100.00;101553.94;5027847;28;20478;-62
2023/08/09 07:38:59;;;;;;;3.95;3.50;;;;;;;19.17;100.00;101551.28;5025181;28;20034;-57
2023/08/09 07:41:25;;;;;;;3.75;3.15;;;;;;;19.35;100.00;101551.13;5022574;28;20080;-58
2023/08/09 07:43:50;;;;;;;6.93;3.47;;;;;;;19.37;100.00;101556.38;5025160;28;20088;-61
2023/08/09 07:46:16;;;;;;;6.72;3.63;;;;;;;19.37;100.00;101559.03;5019863;28;20064;-61
2023/08/09 07:48:41;;;;;;;5.50;3.47;;;;;;;19.49;100.00;101558.31;5023874;28;20061;-60
2023/08/09 07:51:11;;;;;;;5.90;3.60;;;;;;;19.61;100.00;101562.06;5017874;28;20037;-61
2023/08/09 07:53:37;;;;;;;13.07;3.95;;;;;;;19.88;100.00;101564.00;5020405;28;20025;-58
2023/08/09 07:56:03;;;;;;;5.70;3.30;;;;;;;20.23;100.00;101575.28;5016856;28;20033;-59
2023/08/09 07:58:28;;;;;;;6.70;3.25;;;;;;;20.56;100.00;101574.91;5017679;28;20022;-61
2023/08/09 08:00:54;;;;;;;7.13;3.47;;;;;;;20.63;100.00;101570.03;5027131;28;20441;-61
2023/08/09 08:03:19;;;;;;;7.63;3.50;;;;;;;20.51;100.00;101577.03;5015637;28;20394;-61
2023/08/09 08:05:45;;;;;;;9.90;2.95;;;;;;;20.38;100.00;101573.44;5016531;28;20065;-61
2023/08/09 08:08:10;;;;;;;6.88;2.60;;;;;;;20.39;100.00;101584.03;5020680;28;20021;-59
2023/08/09 08:10:36;;;;;;;3.50;2.50;;;;;;;20.46;100.00;101584.50;5015900;28;20022;-58
2023/08/09 08:13:01;;;;;;;4.00;2.70;;;;;;;20.50;100.00;101587.84;5015365;28;20040;-59
2023/08/09 08:15:27;;;;;;;7.38;2.95;;;;;;;20.35;100.00;101595.91;5014388;28;20104;-58
2023/08/09 08:17:54;;;;;;;9.50;2.78;;;;;;;20.22;100.00;101597.63;5018949;28;20116;-58
2023/08/09 08:20:20;;;;;;;4.28;2.55;;;;;;;20.26;100.00;101604.50;5016275;28;20021;-58
2023/08/09 08:22:47;;;;;;;4.43;2.50;;;;;;;20.19;100.00;101609.38;5013352;28;20040;-61
2023/08/09 08:25:13;;;;;;;3.88;2.55;;;;;;;20.13;100.00;101613.31;5015501;28;20038;-61
2023/08/09 08:27:40;;;;;;;5.40;2.50;;;;;;;20.16;100.00;101617.59;5015593;28;20513;-61
2023/08/09 08:30:08;;;;;;;3.72;2.60;;;;;;;20.36;100.00;101611.00;5016603;28;20044;-60
2023/08/09 08:32:34;;;;;;;5.30;3.22;;;;;;;20.49;100.00;101621.78;5016435;28;20022;-59
2023/08/09 08:35:02;;;;;;;7.13;3.13;;;;;;;20.69;100.00;101609.78;5005796;28;20032;-57
2023/08/09 08:37:27;;;;;;;5.40;2.90;;;;;;;20.89;100.00;101602.25;5026278;28;20053;-61
2023/08/09 08:39:53;;;;;;;5.50;2.67;;;;;;;21.27;100.00;101605.19;5025601;28;20083;-62
2023/08/09 08:42:18;;;;;;;5.38;2.80;;;;;;;21.34;100.00;101619.88;5025312;28;20033;-55
2023/08/09 08:44:44;;;;;;;4.72;2.33;;;;;;;21.58;100.00;101616.50;5024262;28;20516;-61
2023/08/09 08:47:10;;;;;;;4.32;2.40;;;;;;;21.43;100.00;101621.09;5026269;28;20030;-60
2023/08/09 08:49:44;;;;;;;9.00;2.60;;;;;;;21.08;100.00;101628.72;5024370;28;20029;-63
2023/08/09 08:52:12;;;;;;;5.07;2.80;;;;;;;20.39;100.00;101632.22;5026434;28;20440;-60
2023/08/09 08:54:37;;;;;;;5.93;2.75;;;;;;;20.01;100.00;101639.00;5025089;28;20249;-59
2023/08/09 08:57:03;;;;;;;7.50;2.97;;;;;;;19.74;100.00;101638.84;5022922;28;20021;-61
2023/08/09 08:59:29;;;;;;;5.28;2.45;;;;;;;19.63;100.00;101634.97;5024109;28;20039;-61
2023/08/09 09:01:55;;;;;;;5.03;2.42;;;;;;;19.79;100.00;101642.09;5005628;28;20034;-61
2023/08/09 09:04:20;;;;;;;4.63;2.35;;;;;;;19.99;100.00;101645.38;5005012;28;20022;-63
2023/08/09 09:06:46;;;;;;;5.32;2.22;;;;;;;20.34;100.00;101650.38;5023398;28;20033;-61
2023/08/09 09:09:13;;;;;;;4.82;1.85;;;;;;;20.71;100.00;101642.66;5025331;28;20017;-60
2023/08/09 09:11:39;;;;;;;3.95;1.50;;;;;;;20.73;100.00;101642.56;5024754;28;20437;-63
2023/08/09 09:14:14;;;;;;;5.15;1.92;;;;;;;20.69;100.00;101654.44;5025325;28;20075;-58
2023/08/09 09:16:41;;;;;;;4.20;2.33;;;;;;;20.36;100.00;101653.81;5025329;28;20087;-63
2023/08/09 09:19:06;;;;;;;2.42;1.42;;;;;;;20.41;100.00;101651.69;5024623;28;20065;-59
2023/08/09 09:21:33;;;;;;;4.88;1.55;;;;;;;20.44;100.00;101642.63;5024540;28;20395;-61
2023/08/09 09:24:07;;;;;;;4.70;1.90;;;;;;;20.78;100.00;101636.91;5024126;28;20458;-62
2023/08/09 09:26:32;;;;;;;4.63;1.75;;;;;;;20.93;100.00;101637.78;5025011;28;20373;-59
2023/08/09 09:28:57;;;;;;;6.65;1.98;;;;;;;20.97;100.00;101636.59;5025435;28;20017;-61
2023/08/09 09:31:33;;;;;;;5.65;1.80;;;;;;;21.01;100.00;101631.91;5025705;28;20393;-61
2023/08/09 09:33:59;;;;;;;3.55;2.20;;;;;;;21.10;100.00;101652.72;5028784;28;20037;-61
2023/08/09 09:36:25;;;;;;;5.05;1.60;;;;;;;21.12;100.00;101640.09;5027467;28;20469;-62
2023/08/09 09:38:53;;;;;;;6.00;1.67;;;;;;;21.12;100.00;101641.91;5028961;28;20044;-60
2023/08/09 09:41:19;;;;;;;3.92;1.50;;;;;;;21.28;100.00;101639.91;5028431;28;20381;-62
2023/08/09 09:43:47;;;;;;;4.40;2.03;;;;;;;21.33;100.00;101637.81;5028183;28;20020;-60
2023/08/09 09:46:20;;;;;;;8.68;1.92;;;;;;;21.70;100.00;101633.56;5027989;28;20029;-58
2023/08/09 09:48:49;;;;;;;3.20;1.73;;;;;;;22.08;100.00;101637.25;5029030;28;20025;-60
2023/08/09 09:51:16;;;;;;;4.90;1.50;;;;;;;22.28;98.12;101648.41;5026897;28;20324;-56
2023/08/09 09:53:43;;;;;;;5.05;1.50;;;;;;;22.02;97.77;101656.47;5029366;28;20056;-58
2023/08/09 09:56:09;;;;;;;5.90;1.75;;;;;;;21.77;100.00;101660.88;5027907;28;20037;-61
2023/08/09 09:58:34;;;;;;;5.57;1.45;;;;;;;21.38;99.55;101650.91;5029279;28;20029;-62
2023/08/09 10:01:01;;;;;;;2.65;1.30;;;;;;;21.18;100.00;101657.56;5028020;28;20022;-61
2023/08/09 10:03:28;;;;;;;4.60;1.73;;;;;;;21.13;100.00;101663.25;5026350;28;20533;-61
2023/08/09 10:05:55;;;;;;;3.35;1.60;;;;;;;21.25;100.00;101677.66;5026347;28;20045;-60
2023/08/09 10:08:21;;;;;;;4.40;1.40;;;;;;;21.54;100.00;101672.16;5027522;28;20025;-60
2023/08/09 10:10:49;;;;;;;7.57;1.33;;;;;;;21.46;97.68;101685.22;5026629;28;20486;-57
2023/08/09 10:13:19;;;;;;;11.20;2.33;;;;;;;21.34;100.00;101684.22;5026776;28;20418;-62
2023/08/09 10:15:47;;;;;;;7.07;1.50;;;;;;;21.28;100.00;101674.75;5026817;28;20103;-60
2023/08/09 10:18:25;;;;;;;7.25;1.90;;;;;;;21.18;100.00;101684.38;5027618;28;20100;-60
2023/08/09 10:20:55;;;;;;;2.80;1.58;;;;;;;21.09;100.00;101688.53;5027702;28;20030;-58
2023/08/09 10:23:24;;;;;;;6.72;1.63;;;;;;;21.06;100.00;101694.06;5028800;28;20021;-62
2023/08/09 10:25:50;;;;;;;5.20;1.70;;;;;;;21.31;100.00;101704.03;5024911;28;20026;-64
2023/08/09 10:28:17;;;;;;;7.65;1.70;;;;;;;21.65;99.80;101717.03;5026924;28;20014;-61
2023/08/09 10:30:51;;;;;;;10.40;1.90;;;;;;;21.52;96.38;101700.88;5026644;28;20075;-56
2023/08/09 10:33:20;;;;;;;3.33;1.38;;;;;;;21.45;97.00;101700.47;5028014;28;20417;-59
2023/08/09 10:35:49;;;;;;;5.43;1.30;;;;;;;21.49;100.00;101710.97;5017914;28;20028;-60
2023/08/09 10:38:16;;;;;;;4.88;1.30;;;;;;;21.58;96.40;101715.69;5024519;28;20037;-63
2023/08/09 10:40:42;;;;;;;4.55;1.35;;;;;;;21.56;95.33;101701.56;5025586;28;20079;-63
2023/08/09 10:43:21;;;;;;;10.75;1.58;;;;;;;21.75;93.79;101724.44;5028476;28;20025;-61
2023/08/09 10:45:47;;;;;;;4.70;1.52;;;;;;;21.90;90.33;101715.38;5022064;28;20367;-58
2023/08/09 10:48:17;;;;;;;8.88;1.20;;;;;;;22.12;89.80;101721.09;5029019;28;20136;-60
2023/08/09 10:50:43;;;;;;;6.28;1.48;;;;;;;22.17;92.34;101710.88;5018450;28;20025;-63
2023/08/09 10:53:08;;;;;;;7.18;1.45;;;;;;;22.47;93.17;101718.63;5025035;28;20048;-61
2023/08/09 10:55:34;;;;;;;8.93;1.40;;;;;;;22.53;91.66;101716.44;5017053;28;20026;-60
2023/08/09 10:58:00;;;;;;;3.45;1.02;;;;;;;22.39;92.70;101714.78;5022751;28;20033;-62
2023/08/09 11:00:28;;;;;;;9.57;1.63;;;;;;;22.17;96.66;101719.81;5016277;28;20022;-56
2023/08/09 11:02:56;;;;;;;5.60;1.83;;;;;;;22.02;97.46;101718.19;5020007;28;20504;-61